sensor_id;sensor_type;location;lat;lon;timestamp;P1;durP1;ratioP1;P2;durP2;ratioP2
41881;SDS011;27562;47.524;12.404;2023-05-14T00:01:52;2.88;;;1.00;;
41881;SDS011;27562;47.524;12.404;2023-05-14T00:04:18;2.40;;;1.10;;
41881;SDS011;27562;47.524;12.404;2023-05-14T00:06:44;2.70;;;0.73;;
41881;SDS011;27562;47.524;12.404;2023-05-14T00:09:10;2.25;;;0.90;;
41881;SDS011;27562;47.524;12.404;2023-05-14T00:11:37;2.05;;;0.70;;
41881;SDS011;27562;47.524;12.404;2023-05-14T00:14:03;1.25;;;0.77;;
41881;SDS011;27562;47.524;12.404;2023-05-14T00:16:28;2.17;;;1.05;;
41881;SDS011;27562;47.524;12.404;2023-05-14T00:18:54;1.75;;;0.85;;
41881;SDS011;27562;47.524;12.404;2023-05-14T00:21:20;2.13;;;0.90;;
41881;SDS011;27562;47.524;12.404;2023-05-14T00:23:45;2.20;;;1.40;;
41881;SDS011;27562;47.524;12.404;2023-05-14T00:26:11;2.17;;;1.20;;
41881;SDS011;27562;47.524;12.404;2023-05-14T00:28:37;2.08;;;1.30;;
41881;SDS011;27562;47.524;12.404;2023-05-14T00:31:03;3.15;;;1.27;;
41881;SDS011;27562;47.524;12.404;2023-05-14T00:33:28;1.65;;;1.15;;
41881;SDS011;27562;47.524;12.404;2023-05-14T00:35:54;2.85;;;1.10;;
41881;SDS011;27562;47.524;12.404;2023-05-14T00:38:20;2.42;;;1.25;;
41881;SDS011;27562;47.524;12.404;2023-05-14T00:40:48;2.13;;;1.20;;
41881;SDS011;27562;47.524;12.404;2023-05-14T00:43:21;1.58;;;1.10;;
41881;SDS011;27562;47.524;12.404;2023-05-14T00:45:51;2.33;;;1.52;;
41881;SDS011;27562;47.524;12.404;2023-05-14T00:48:18;2.15;;;1.40;;
41881;SDS011;27562;47.524;12.404;2023-05-14T00:50:45;2.15;;;1.30;;
41881;SDS011;27562;47.524;12.404;2023-05-14T00:53:11;2.13;;;1.30;;
41881;SDS011;27562;47.524;12.404;2023-05-14T00:55:37;2.22;;;1.58;;
41881;SDS011;27562;47.524;12.404;2023-05-14T00:58:06;2.55;;;1.33;;
41881;SDS011;27562;47.524;12.404;2023-05-14T01:00:36;2.30;;;1.70;;
41881;SDS011;27562;47.524;12.404;2023-05-14T01:03:03;1.95;;;1.30;;
41881;SDS011;27562;47.524;12.404;2023-05-14T01:16:37;2.40;;;1.35;;
41881;SDS011;27562;47.524;12.404;2023-05-14T01:19:06;2.45;;;1.25;;
41881;SDS011;27562;47.524;12.404;2023-05-14T01:21:41;2.65;;;1.40;;
41881;SDS011;27562;47.524;12.404;2023-05-14T01:24:07;2.58;;;1.10;;
41881;SDS011;27562;47.524;12.404;2023-05-14T01:26:34;1.83;;;1.08;;
41881;SDS011;27562;47.524;12.404;2023-05-14T01:29:12;2.75;;;0.90;;
41881;SDS011;27562;47.524;12.404;2023-05-14T01:31:43;1.80;;;1.00;;
41881;SDS011;27562;47.524;12.404;2023-05-14T01:34:10;2.25;;;0.80;;
41881;SDS011;27562;47.524;12.404;2023-05-14T01:36:37;3.35;;;0.90;;
41881;SDS011;27562;47.524;12.404;2023-05-14T01:39:05;2.20;;;0.90;;
41881;SDS011;27562;47.524;12.404;2023-05-14T01:41:36;2.50;;;1.00;;
41881;SDS011;27562;47.524;12.404;2023-05-14T01:44:03;2.40;;;1.10;;
41881;SDS011;27562;47.524;12.404;2023-05-14T01:46:30;2.05;;;1.10;;
41881;SDS011;27562;47.524;12.404;2023-05-14T01:48:56;1.63;;;0.90;;
41881;SDS011;27562;47.524;12.404;2023-05-14T01:51:22;2.17;;;1.20;;
41881;SDS011;27562;47.524;12.404;2023-05-14T01:53:48;1.70;;;1.00;;
41881;SDS011;27562;47.524;12.404;2023-05-14T01:56:13;2.30;;;1.10;;
41881;SDS011;27562;47.524;12.404;2023-05-14T01:58:39;1.45;;;0.85;;
41881;SDS011;27562;47.524;12.404;2023-05-14T02:01:05;1.63;;;0.93;;
41881;SDS011;27562;47.524;12.404;2023-05-14T02:03:30;1.67;;;0.80;;
41881;SDS011;27562;47.524;12.404;2023-05-14T02:05:56;2.08;;;1.00;;
41881;SDS011;27562;47.524;12.404;2023-05-14T02:08:22;2.08;;;1.02;;
41881;SDS011;27562;47.524;12.404;2023-05-14T02:10:47;1.33;;;0.70;;
41881;SDS011;27562;47.524;12.404;2023-05-14T02:13:13;2.15;;;1.05;;
41881;SDS011;27562;47.524;12.404;2023-05-14T02:15:39;2.58;;;0.80;;
41881;SDS011;27562;47.524;12.404;2023-05-14T02:18:04;1.58;;;0.88;;
41881;SDS011;27562;47.524;12.404;2023-05-14T02:20:30;1.73;;;0.90;;
41881;SDS011;27562;47.524;12.404;2023-05-14T02:22:56;1.77;;;1.02;;
41881;SDS011;27562;47.524;12.404;2023-05-14T02:25:21;2.22;;;1.25;;
41881;SDS011;27562;47.524;12.404;2023-05-14T02:27:47;3.35;;;1.25;;
41881;SDS011;27562;47.524;12.404;2023-05-14T02:30:13;1.60;;;1.10;;
41881;SDS011;27562;47.524;12.404;2023-05-14T02:32:39;2.53;;;0.98;;
41881;SDS011;27562;47.524;12.404;2023-05-14T02:35:05;2.17;;;1.20;;
41881;SDS011;27562;47.524;12.404;2023-05-14T02:37:31;2.72;;;1.15;;
41881;SDS011;27562;47.524;12.404;2023-05-14T02:39:56;1.70;;;0.90;;
41881;SDS011;27562;47.524;12.404;2023-05-14T02:42:22;2.72;;;0.90;;
41881;SDS011;27562;47.524;12.404;2023-05-14T02:44:48;4.35;;;1.20;;
41881;SDS011;27562;47.524;12.404;2023-05-14T02:47:13;2.78;;;1.20;;
41881;SDS011;27562;47.524;12.404;2023-05-14T02:49:39;2.72;;;1.42;;
41881;SDS011;27562;47.524;12.404;2023-05-14T02:52:05;2.35;;;1.40;;
41881;SDS011;27562;47.524;12.404;2023-05-14T02:54:30;1.95;;;1.20;;
41881;SDS011;27562;47.524;12.404;2023-05-14T02:56:56;2.03;;;1.10;;
41881;SDS011;27562;47.524;12.404;2023-05-14T02:59:22;1.88;;;1.05;;
41881;SDS011;27562;47.524;12.404;2023-05-14T03:01:48;1.77;;;0.73;;
41881;SDS011;27562;47.524;12.404;2023-05-14T03:04:14;1.63;;;0.70;;
41881;SDS011;27562;47.524;12.404;2023-05-14T03:06:40;1.50;;;0.65;;
41881;SDS011;27562;47.524;12.404;2023-05-14T03:09:05;1.42;;;0.75;;
41881;SDS011;27562;47.524;12.404;2023-05-14T03:11:31;0.82;;;0.55;;
41881;SDS011;27562;47.524;12.404;2023-05-14T03:13:57;1.23;;;0.70;;
41881;SDS011;27562;47.524;12.404;2023-05-14T03:16:23;1.30;;;0.82;;
41881;SDS011;27562;47.524;12.404;2023-05-14T03:18:48;2.78;;;0.80;;
41881;SDS011;27562;47.524;12.404;2023-05-14T03:21:14;1.90;;;0.80;;
41881;SDS011;27562;47.524;12.404;2023-05-14T03:23:40;1.40;;;0.80;;
41881;SDS011;27562;47.524;12.404;2023-05-14T03:26:07;1.73;;;0.90;;
41881;SDS011;27562;47.524;12.404;2023-05-14T03:28:33;1.88;;;1.00;;
41881;SDS011;27562;47.524;12.404;2023-05-14T03:30:58;2.28;;;0.90;;
41881;SDS011;27562;47.524;12.404;2023-05-14T03:33:24;2.03;;;0.90;;
41881;SDS011;27562;47.524;12.404;2023-05-14T03:35:50;3.13;;;1.20;;
41881;SDS011;27562;47.524;12.404;2023-05-14T03:38:16;1.60;;;0.93;;
41881;SDS011;27562;47.524;12.404;2023-05-14T03:40:42;1.70;;;1.05;;
41881;SDS011;27562;47.524;12.404;2023-05-14T03:43:08;1.65;;;0.82;;
41881;SDS011;27562;47.524;12.404;2023-05-14T03:45:35;1.35;;;0.70;;
41881;SDS011;27562;47.524;12.404;2023-05-14T03:48:00;1.60;;;0.90;;
41881;SDS011;27562;47.524;12.404;2023-05-14T03:50:26;2.45;;;0.90;;
41881;SDS011;27562;47.524;12.404;2023-05-14T03:52:52;2.03;;;1.10;;
41881;SDS011;27562;47.524;12.404;2023-05-14T03:55:19;2.92;;;0.98;;
41881;SDS011;27562;47.524;12.404;2023-05-14T03:57:45;1.10;;;0.57;;
41881;SDS011;27562;47.524;12.404;2023-05-14T04:00:14;3.42;;;0.90;;
41881;SDS011;27562;47.524;12.404;2023-05-14T04:02:40;1.67;;;0.73;;
41881;SDS011;27562;47.524;12.404;2023-05-14T04:05:06;1.17;;;0.68;;
41881;SDS011;27562;47.524;12.404;2023-05-14T04:07:32;1.20;;;0.60;;
41881;SDS011;27562;47.524;12.404;2023-05-14T04:09:58;1.52;;;0.85;;
41881;SDS011;27562;47.524;12.404;2023-05-14T04:12:24;2.35;;;1.08;;
41881;SDS011;27562;47.524;12.404;2023-05-14T04:14:50;1.88;;;1.20;;
41881;SDS011;27562;47.524;12.404;2023-05-14T04:17:16;1.65;;;0.90;;
41881;SDS011;27562;47.524;12.404;2023-05-14T04:19:42;1.65;;;0.85;;
41881;SDS011;27562;47.524;12.404;2023-05-14T04:22:08;2.85;;;1.20;;
41881;SDS011;27562;47.524;12.404;2023-05-14T04:24:33;2.00;;;1.08;;
41881;SDS011;27562;47.524;12.404;2023-05-14T04:26:59;1.92;;;1.10;;
41881;SDS011;27562;47.524;12.404;2023-05-14T04:29:25;1.20;;;0.80;;
41881;SDS011;27562;47.524;12.404;2023-05-14T04:31:51;1.50;;;0.80;;
41881;SDS011;27562;47.524;12.404;2023-05-14T04:34:17;2.15;;;1.00;;
41881;SDS011;27562;47.524;12.404;2023-05-14T04:36:43;2.22;;;1.10;;
41881;SDS011;27562;47.524;12.404;2023-05-14T04:39:08;1.67;;;1.00;;
41881;SDS011;27562;47.524;12.404;2023-05-14T04:41:37;1.40;;;0.82;;
41881;SDS011;27562;47.524;12.404;2023-05-14T04:44:02;2.13;;;1.00;;
41881;SDS011;27562;47.524;12.404;2023-05-14T04:46:28;1.20;;;0.80;;
41881;SDS011;27562;47.524;12.404;2023-05-14T04:48:54;2.90;;;1.00;;
41881;SDS011;27562;47.524;12.404;2023-05-14T04:51:20;2.35;;;1.10;;
41881;SDS011;27562;47.524;12.404;2023-05-14T04:53:46;1.90;;;1.10;;
41881;SDS011;27562;47.524;12.404;2023-05-14T04:56:12;2.10;;;1.10;;
41881;SDS011;27562;47.524;12.404;2023-05-14T04:58:38;2.60;;;1.65;;
41881;SDS011;27562;47.524;12.404;2023-05-14T05:01:04;3.53;;;1.80;;
41881;SDS011;27562;47.524;12.404;2023-05-14T05:03:30;3.75;;;2.22;;
41881;SDS011;27562;47.524;12.404;2023-05-14T05:05:59;3.63;;;2.22;;
41881;SDS011;27562;47.524;12.404;2023-05-14T05:08:25;3.05;;;2.35;;
41881;SDS011;27562;47.524;12.404;2023-05-14T05:10:50;5.43;;;2.30;;
41881;SDS011;27562;47.524;12.404;2023-05-14T05:13:16;3.28;;;1.83;;
41881;SDS011;27562;47.524;12.404;2023-05-14T05:15:42;3.50;;;2.20;;
41881;SDS011;27562;47.524;12.404;2023-05-14T05:18:08;3.50;;;1.70;;
41881;SDS011;27562;47.524;12.404;2023-05-14T05:20:33;3.55;;;1.92;;
41881;SDS011;27562;47.524;12.404;2023-05-14T05:22:59;2.70;;;1.80;;
41881;SDS011;27562;47.524;12.404;2023-05-14T05:25:25;2.88;;;1.92;;
41881;SDS011;27562;47.524;12.404;2023-05-14T05:27:51;2.80;;;1.77;;
41881;SDS011;27562;47.524;12.404;2023-05-14T05:30:17;2.70;;;1.65;;
41881;SDS011;27562;47.524;12.404;2023-05-14T05:32:43;3.67;;;1.48;;
41881;SDS011;27562;47.524;12.404;2023-05-14T05:35:09;2.30;;;1.50;;
41881;SDS011;27562;47.524;12.404;2023-05-14T05:37:34;1.98;;;1.23;;
41881;SDS011;27562;47.524;12.404;2023-05-14T05:40:00;2.67;;;1.38;;
41881;SDS011;27562;47.524;12.404;2023-05-14T05:42:26;2.25;;;1.40;;
41881;SDS011;27562;47.524;12.404;2023-05-14T05:44:51;2.88;;;1.38;;
41881;SDS011;27562;47.524;12.404;2023-05-14T05:47:17;2.78;;;2.00;;
41881;SDS011;27562;47.524;12.404;2023-05-14T05:49:43;2.85;;;1.65;;
41881;SDS011;27562;47.524;12.404;2023-05-14T05:52:08;4.38;;;2.00;;
41881;SDS011;27562;47.524;12.404;2023-05-14T05:54:34;3.70;;;1.30;;
41881;SDS011;27562;47.524;12.404;2023-05-14T05:57:00;3.25;;;1.67;;
41881;SDS011;27562;47.524;12.404;2023-05-14T05:59:25;2.22;;;1.40;;
41881;SDS011;27562;47.524;12.404;2023-05-14T06:01:51;2.80;;;1.50;;
41881;SDS011;27562;47.524;12.404;2023-05-14T06:04:17;2.83;;;1.60;;
41881;SDS011;27562;47.524;12.404;2023-05-14T06:06:42;2.88;;;2.08;;
41881;SDS011;27562;47.524;12.404;2023-05-14T06:09:08;3.25;;;1.88;;
41881;SDS011;27562;47.524;12.404;2023-05-14T06:11:34;3.10;;;1.90;;
41881;SDS011;27562;47.524;12.404;2023-05-14T06:14:00;3.60;;;2.20;;
41881;SDS011;27562;47.524;12.404;2023-05-14T06:16:26;2.95;;;1.92;;
41881;SDS011;27562;47.524;12.404;2023-05-14T06:18:52;4.32;;;2.30;;
41881;SDS011;27562;47.524;12.404;2023-05-14T06:21:18;3.65;;;2.38;;
41881;SDS011;27562;47.524;12.404;2023-05-14T06:23:44;4.38;;;2.20;;
41881;SDS011;27562;47.524;12.404;2023-05-14T06:26:09;3.60;;;2.25;;
41881;SDS011;27562;47.524;12.404;2023-05-14T06:28:35;4.35;;;2.10;;
41881;SDS011;27562;47.524;12.404;2023-05-14T06:31:01;3.22;;;2.20;;
41881;SDS011;27562;47.524;12.404;2023-05-14T06:33:26;3.55;;;2.08;;
41881;SDS011;27562;47.524;12.404;2023-05-14T06:35:58;3.92;;;2.35;;
41881;SDS011;27562;47.524;12.404;2023-05-14T06:38:25;4.47;;;2.28;;
41881;SDS011;27562;47.524;12.404;2023-05-14T06:40:51;4.53;;;2.42;;
41881;SDS011;27562;47.524;12.404;2023-05-14T06:43:19;5.07;;;2.92;;
41881;SDS011;27562;47.524;12.404;2023-05-14T06:45:51;5.32;;;3.90;;
41881;SDS011;27562;47.524;12.404;2023-05-14T06:48:17;4.95;;;3.17;;
41881;SDS011;27562;47.524;12.404;2023-05-14T06:50:44;4.00;;;2.97;;
41881;SDS011;27562;47.524;12.404;2023-05-14T06:53:10;4.78;;;3.08;;
41881;SDS011;27562;47.524;12.404;2023-05-14T06:55:36;4.18;;;3.25;;
41881;SDS011;27562;47.524;12.404;2023-05-14T06:58:02;5.40;;;3.45;;
41881;SDS011;27562;47.524;12.404;2023-05-14T07:00:28;4.45;;;3.10;;
41881;SDS011;27562;47.524;12.404;2023-05-14T07:02:54;4.65;;;3.20;;
41881;SDS011;27562;47.524;12.404;2023-05-14T07:05:20;5.75;;;3.03;;
41881;SDS011;27562;47.524;12.404;2023-05-14T07:07:45;4.05;;;3.05;;
41881;SDS011;27562;47.524;12.404;2023-05-14T07:10:11;5.15;;;3.30;;
41881;SDS011;27562;47.524;12.404;2023-05-14T07:12:37;4.30;;;2.90;;
41881;SDS011;27562;47.524;12.404;2023-05-14T07:15:02;3.80;;;2.60;;
41881;SDS011;27562;47.524;12.404;2023-05-14T07:17:28;3.95;;;2.50;;
41881;SDS011;27562;47.524;12.404;2023-05-14T07:19:57;4.78;;;2.90;;
41881;SDS011;27562;47.524;12.404;2023-05-14T07:22:23;4.88;;;2.58;;
41881;SDS011;27562;47.524;12.404;2023-05-14T07:24:48;4.03;;;2.40;;
41881;SDS011;27562;47.524;12.404;2023-05-14T07:27:14;4.95;;;2.60;;
41881;SDS011;27562;47.524;12.404;2023-05-14T07:29:41;4.43;;;2.75;;
41881;SDS011;27562;47.524;12.404;2023-05-14T07:32:07;2.42;;;1.50;;
41881;SDS011;27562;47.524;12.404;2023-05-14T07:34:32;2.45;;;1.50;;
41881;SDS011;27562;47.524;12.404;2023-05-14T07:36:58;3.20;;;1.80;;
41881;SDS011;27562;47.524;12.404;2023-05-14T07:39:24;3.08;;;2.10;;
41881;SDS011;27562;47.524;12.404;2023-05-14T07:41:50;2.45;;;1.65;;
41881;SDS011;27562;47.524;12.404;2023-05-14T07:44:17;3.10;;;1.95;;
41881;SDS011;27562;47.524;12.404;2023-05-14T07:46:42;2.70;;;1.45;;
41881;SDS011;27562;47.524;12.404;2023-05-14T07:49:08;3.30;;;1.92;;
41881;SDS011;27562;47.524;12.404;2023-05-14T07:51:33;2.72;;;1.52;;
41881;SDS011;27562;47.524;12.404;2023-05-14T07:53:59;2.50;;;1.50;;
41881;SDS011;27562;47.524;12.404;2023-05-14T07:56:25;2.47;;;1.73;;
41881;SDS011;27562;47.524;12.404;2023-05-14T07:58:51;2.50;;;1.50;;
41881;SDS011;27562;47.524;12.404;2023-05-14T08:01:16;2.45;;;1.40;;
41881;SDS011;27562;47.524;12.404;2023-05-14T08:03:42;3.03;;;1.23;;
41881;SDS011;27562;47.524;12.404;2023-05-14T08:06:08;4.05;;;1.45;;
41881;SDS011;27562;47.524;12.404;2023-05-14T08:08:34;2.55;;;1.73;;
41881;SDS011;27562;47.524;12.404;2023-05-14T08:11:03;2.17;;;1.42;;
41881;SDS011;27562;47.524;12.404;2023-05-14T08:13:29;2.58;;;1.52;;
41881;SDS011;27562;47.524;12.404;2023-05-14T08:15:54;2.22;;;1.60;;
41881;SDS011;27562;47.524;12.404;2023-05-14T08:18:20;2.92;;;1.70;;
41881;SDS011;27562;47.524;12.404;2023-05-14T08:20:46;1.73;;;1.15;;
41881;SDS011;27562;47.524;12.404;2023-05-14T08:23:12;2.42;;;1.45;;
41881;SDS011;27562;47.524;12.404;2023-05-14T08:25:38;2.30;;;1.60;;
41881;SDS011;27562;47.524;12.404;2023-05-14T08:28:03;2.22;;;1.48;;
41881;SDS011;27562;47.524;12.404;2023-05-14T08:30:29;2.42;;;1.65;;
41881;SDS011;27562;47.524;12.404;2023-05-14T08:32:55;2.65;;;1.50;;
41881;SDS011;27562;47.524;12.404;2023-05-14T08:35:22;2.20;;;1.33;;
41881;SDS011;27562;47.524;12.404;2023-05-14T08:37:48;2.30;;;1.25;;
41881;SDS011;27562;47.524;12.404;2023-05-14T08:40:14;2.17;;;1.40;;
41881;SDS011;27562;47.524;12.404;2023-05-14T08:42:40;2.58;;;1.20;;
41881;SDS011;27562;47.524;12.404;2023-05-14T08:45:29;1.35;;;0.93;;
41881;SDS011;27562;47.524;12.404;2023-05-14T08:47:57;1.83;;;1.20;;
41881;SDS011;27562;47.524;12.404;2023-05-14T08:50:25;1.85;;;1.10;;
41881;SDS011;27562;47.524;12.404;2023-05-14T08:52:51;2.20;;;1.08;;
41881;SDS011;27562;47.524;12.404;2023-05-14T08:55:17;3.65;;;1.33;;
41881;SDS011;27562;47.524;12.404;2023-05-14T08:57:44;2.90;;;1.80;;
41881;SDS011;27562;47.524;12.404;2023-05-14T09:00:10;2.58;;;1.40;;
41881;SDS011;27562;47.524;12.404;2023-05-14T09:02:37;2.35;;;1.50;;
41881;SDS011;27562;47.524;12.404;2023-05-14T09:05:04;2.75;;;1.80;;
41881;SDS011;27562;47.524;12.404;2023-05-14T09:07:31;2.00;;;1.33;;
41881;SDS011;27562;47.524;12.404;2023-05-14T09:09:57;1.27;;;1.08;;
41881;SDS011;27562;47.524;12.404;2023-05-14T09:12:23;2.60;;;1.20;;
41881;SDS011;27562;47.524;12.404;2023-05-14T09:14:50;2.78;;;1.50;;
41881;SDS011;27562;47.524;12.404;2023-05-14T09:17:16;2.05;;;1.48;;
41881;SDS011;27562;47.524;12.404;2023-05-14T09:19:42;2.83;;;1.48;;
41881;SDS011;27562;47.524;12.404;2023-05-14T09:22:11;2.00;;;1.50;;
41881;SDS011;27562;47.524;12.404;2023-05-14T09:24:38;1.77;;;1.08;;
41881;SDS011;27562;47.524;12.404;2023-05-14T09:27:04;3.95;;;1.45;;
41881;SDS011;27562;47.524;12.404;2023-05-14T09:29:31;9.50;;;4.03;;
41881;SDS011;27562;47.524;12.404;2023-05-14T09:31:57;4.55;;;1.60;;
41881;SDS011;27562;47.524;12.404;2023-05-14T09:34:33;6.65;;;3.25;;
41881;SDS011;27562;47.524;12.404;2023-05-14T09:37:03;4.13;;;2.15;;
41881;SDS011;27562;47.524;12.404;2023-05-14T09:39:33;3.30;;;1.60;;
41881;SDS011;27562;47.524;12.404;2023-05-14T09:42:02;3.03;;;1.50;;
41881;SDS011;27562;47.524;12.404;2023-05-14T09:44:28;4.40;;;1.73;;
41881;SDS011;27562;47.524;12.404;2023-05-14T09:46:54;2.83;;;1.50;;
41881;SDS011;27562;47.524;12.404;2023-05-14T09:49:20;2.40;;;1.20;;
41881;SDS011;27562;47.524;12.404;2023-05-14T09:51:47;1.92;;;1.05;;
41881;SDS011;27562;47.524;12.404;2023-05-14T09:54:13;1.55;;;0.90;;
41881;SDS011;27562;47.524;12.404;2023-05-14T09:56:39;2.05;;;1.00;;
41881;SDS011;27562;47.524;12.404;2023-05-14T09:59:05;2.42;;;1.00;;
41881;SDS011;27562;47.524;12.404;2023-05-14T10:01:31;1.42;;;1.00;;
41881;SDS011;27562;47.524;12.404;2023-05-14T10:03:57;1.70;;;1.08;;
41881;SDS011;27562;47.524;12.404;2023-05-14T10:06:26;1.88;;;1.10;;
41881;SDS011;27562;47.524;12.404;2023-05-14T10:08:56;1.98;;;1.10;;
41881;SDS011;27562;47.524;12.404;2023-05-14T10:11:26;2.13;;;1.10;;
41881;SDS011;27562;47.524;12.404;2023-05-14T10:14:17;4.13;;;2.60;;
41881;SDS011;27562;47.524;12.404;2023-05-14T10:16:46;3.50;;;1.40;;
41881;SDS011;27562;47.524;12.404;2023-05-14T10:19:14;3.85;;;1.40;;
41881;SDS011;27562;47.524;12.404;2023-05-14T10:21:43;2.22;;;1.10;;
41881;SDS011;27562;47.524;12.404;2023-05-14T10:24:11;2.97;;;1.27;;
41881;SDS011;27562;47.524;12.404;2023-05-14T10:26:38;27.35;;;5.57;;
41881;SDS011;27562;47.524;12.404;2023-05-14T10:29:06;2.30;;;1.20;;
41881;SDS011;27562;47.524;12.404;2023-05-14T10:31:50;3.67;;;1.42;;
41881;SDS011;27562;47.524;12.404;2023-05-14T10:37:09;1.58;;;0.90;;
41881;SDS011;27562;47.524;12.404;2023-05-14T10:39:49;1.13;;;0.82;;
41881;SDS011;27562;47.524;12.404;2023-05-14T10:42:25;1.65;;;0.88;;
41881;SDS011;27562;47.524;12.404;2023-05-14T10:44:52;1.20;;;0.73;;
41881;SDS011;27562;47.524;12.404;2023-05-14T10:47:22;4.13;;;1.00;;
41881;SDS011;27562;47.524;12.404;2023-05-14T10:49:52;2.08;;;0.60;;
41881;SDS011;27562;47.524;12.404;2023-05-14T10:52:19;1.95;;;0.60;;
41881;SDS011;27562;47.524;12.404;2023-05-14T10:54:49;1.50;;;0.90;;
41881;SDS011;27562;47.524;12.404;2023-05-14T10:57:22;1.20;;;0.68;;
41881;SDS011;27562;47.524;12.404;2023-05-14T10:59:53;1.57;;;0.63;;
41881;SDS011;27562;47.524;12.404;2023-05-14T11:02:27;1.67;;;0.60;;
41881;SDS011;27562;47.524;12.404;2023-05-14T11:04:58;1.27;;;0.60;;
41881;SDS011;27562;47.524;12.404;2023-05-14T11:07:28;1.13;;;0.60;;
41881;SDS011;27562;47.524;12.404;2023-05-14T11:10:18;1.58;;;0.50;;
41881;SDS011;27562;47.524;12.404;2023-05-14T11:12:44;0.65;;;0.45;;
41881;SDS011;27562;47.524;12.404;2023-05-14T11:15:12;0.80;;;0.40;;
41881;SDS011;27562;47.524;12.404;2023-05-14T11:17:40;1.02;;;0.60;;
41881;SDS011;27562;47.524;12.404;2023-05-14T11:20:06;2.08;;;0.50;;
41881;SDS011;27562;47.524;12.404;2023-05-14T11:22:33;1.30;;;0.70;;
41881;SDS011;27562;47.524;12.404;2023-05-14T11:24:59;1.60;;;0.50;;
41881;SDS011;27562;47.524;12.404;2023-05-14T11:27:25;0.85;;;0.50;;
41881;SDS011;27562;47.524;12.404;2023-05-14T11:29:51;0.73;;;0.40;;
41881;SDS011;27562;47.524;12.404;2023-05-14T11:32:20;1.58;;;0.50;;
41881;SDS011;27562;47.524;12.404;2023-05-14T11:34:46;0.70;;;0.52;;
41881;SDS011;27562;47.524;12.404;2023-05-14T11:37:13;4.57;;;0.70;;
41881;SDS011;27562;47.524;12.404;2023-05-14T11:39:45;1.58;;;0.80;;
41881;SDS011;27562;47.524;12.404;2023-05-14T11:42:12;0.93;;;0.50;;
41881;SDS011;27562;47.524;12.404;2023-05-14T11:44:40;1.50;;;0.65;;
41881;SDS011;27562;47.524;12.404;2023-05-14T11:47:08;2.80;;;0.90;;
41881;SDS011;27562;47.524;12.404;2023-05-14T11:49:34;1.77;;;0.80;;
41881;SDS011;27562;47.524;12.404;2023-05-14T11:52:02;3.05;;;0.82;;
41881;SDS011;27562;47.524;12.404;2023-05-14T11:54:29;2.92;;;0.50;;
41881;SDS011;27562;47.524;12.404;2023-05-14T11:56:56;1.10;;;0.70;;
41881;SDS011;27562;47.524;12.404;2023-05-14T11:59:23;1.58;;;0.80;;
41881;SDS011;27562;47.524;12.404;2023-05-14T12:01:56;3.28;;;1.73;;
41881;SDS011;27562;47.524;12.404;2023-05-14T12:04:23;4.93;;;2.85;;
41881;SDS011;27562;47.524;12.404;2023-05-14T12:06:50;0.95;;;0.50;;
41881;SDS011;27562;47.524;12.404;2023-05-14T12:09:17;1.50;;;1.10;;
41881;SDS011;27562;47.524;12.404;2023-05-14T12:11:44;3.40;;;0.80;;
41881;SDS011;27562;47.524;12.404;2023-05-14T12:14:14;3.10;;;1.40;;
41881;SDS011;27562;47.524;12.404;2023-05-14T12:16:42;3.28;;;2.20;;
41881;SDS011;27562;47.524;12.404;2023-05-14T12:19:09;2.20;;;1.40;;
41881;SDS011;27562;47.524;12.404;2023-05-14T12:21:35;2.08;;;1.35;;
41881;SDS011;27562;47.524;12.404;2023-05-14T12:24:02;2.20;;;1.02;;
41881;SDS011;27562;47.524;12.404;2023-05-14T12:26:31;2.33;;;1.17;;
41881;SDS011;27562;47.524;12.404;2023-05-14T12:28:58;2.38;;;1.00;;
41881;SDS011;27562;47.524;12.404;2023-05-14T12:31:28;2.15;;;1.00;;
41881;SDS011;27562;47.524;12.404;2023-05-14T12:33:55;2.58;;;1.23;;
41881;SDS011;27562;47.524;12.404;2023-05-14T12:36:21;3.25;;;1.30;;
41881;SDS011;27562;47.524;12.404;2023-05-14T12:38:47;2.90;;;1.60;;
41881;SDS011;27562;47.524;12.404;2023-05-14T12:41:13;2.20;;;1.40;;
41881;SDS011;27562;47.524;12.404;2023-05-14T12:43:42;5.30;;;1.65;;
41881;SDS011;27562;47.524;12.404;2023-05-14T12:46:09;2.60;;;1.90;;
41881;SDS011;27562;47.524;12.404;2023-05-14T12:48:34;2.85;;;1.73;;
41881;SDS011;27562;47.524;12.404;2023-05-14T12:51:00;2.90;;;1.63;;
41881;SDS011;27562;47.524;12.404;2023-05-14T12:53:26;3.45;;;1.80;;
41881;SDS011;27562;47.524;12.404;2023-05-14T12:55:51;3.25;;;1.90;;
41881;SDS011;27562;47.524;12.404;2023-05-14T12:58:18;3.88;;;1.70;;
41881;SDS011;27562;47.524;12.404;2023-05-14T13:00:44;4.68;;;1.98;;
41881;SDS011;27562;47.524;12.404;2023-05-14T13:03:09;3.47;;;2.25;;
41881;SDS011;27562;47.524;12.404;2023-05-14T13:05:35;3.72;;;2.38;;
41881;SDS011;27562;47.524;12.404;2023-05-14T13:08:01;3.05;;;2.10;;
41881;SDS011;27562;47.524;12.404;2023-05-14T13:10:28;3.70;;;2.10;;
41881;SDS011;27562;47.524;12.404;2023-05-14T13:12:54;3.72;;;2.40;;
41881;SDS011;27562;47.524;12.404;2023-05-14T13:15:20;3.15;;;2.20;;
41881;SDS011;27562;47.524;12.404;2023-05-14T13:17:46;3.25;;;2.10;;
41881;SDS011;27562;47.524;12.404;2023-05-14T13:20:12;3.33;;;2.10;;
41881;SDS011;27562;47.524;12.404;2023-05-14T13:22:38;3.58;;;2.10;;
41881;SDS011;27562;47.524;12.404;2023-05-14T13:25:04;4.15;;;2.65;;
41881;SDS011;27562;47.524;12.404;2023-05-14T13:27:31;4.97;;;2.30;;
41881;SDS011;27562;47.524;12.404;2023-05-14T13:29:57;3.35;;;2.25;;
41881;SDS011;27562;47.524;12.404;2023-05-14T13:32:24;4.85;;;2.95;;
41881;SDS011;27562;47.524;12.404;2023-05-14T13:34:49;5.60;;;2.53;;
41881;SDS011;27562;47.524;12.404;2023-05-14T13:37:15;4.40;;;2.65;;
41881;SDS011;27562;47.524;12.404;2023-05-14T13:39:41;3.58;;;2.38;;
41881;SDS011;27562;47.524;12.404;2023-05-14T13:42:07;4.28;;;2.47;;
41881;SDS011;27562;47.524;12.404;2023-05-14T13:44:32;4.65;;;2.33;;
41881;SDS011;27562;47.524;12.404;2023-05-14T13:47:00;3.75;;;2.50;;
41881;SDS011;27562;47.524;12.404;2023-05-14T13:49:25;4.40;;;2.50;;
41881;SDS011;27562;47.524;12.404;2023-05-14T13:51:51;5.28;;;2.40;;
41881;SDS011;27562;47.524;12.404;2023-05-14T13:54:17;3.35;;;2.25;;
41881;SDS011;27562;47.524;12.404;2023-05-14T13:56:42;3.97;;;2.20;;
41881;SDS011;27562;47.524;12.404;2023-05-14T13:59:08;3.72;;;2.35;;
41881;SDS011;27562;47.524;12.404;2023-05-14T14:01:35;3.65;;;2.70;;
41881;SDS011;27562;47.524;12.404;2023-05-14T14:04:00;3.65;;;2.53;;
41881;SDS011;27562;47.524;12.404;2023-05-14T14:06:29;4.95;;;2.80;;
41881;SDS011;27562;47.524;12.404;2023-05-14T14:08:56;5.28;;;2.88;;
41881;SDS011;27562;47.524;12.404;2023-05-14T14:11:21;4.03;;;2.50;;
41881;SDS011;27562;47.524;12.404;2023-05-14T14:13:47;3.63;;;2.28;;
41881;SDS011;27562;47.524;12.404;2023-05-14T14:16:13;3.50;;;2.38;;
41881;SDS011;27562;47.524;12.404;2023-05-14T14:18:39;6.25;;;2.20;;
41881;SDS011;27562;47.524;12.404;2023-05-14T14:21:07;5.45;;;2.05;;
41881;SDS011;27562;47.524;12.404;2023-05-14T14:23:33;3.78;;;2.13;;
41881;SDS011;27562;47.524;12.404;2023-05-14T14:25:59;4.68;;;2.45;;
41881;SDS011;27562;47.524;12.404;2023-05-14T14:28:24;5.03;;;2.20;;
41881;SDS011;27562;47.524;12.404;2023-05-14T14:30:50;4.95;;;2.78;;
41881;SDS011;27562;47.524;12.404;2023-05-14T14:33:16;3.92;;;2.40;;
41881;SDS011;27562;47.524;12.404;2023-05-14T14:35:41;3.63;;;2.30;;
41881;SDS011;27562;47.524;12.404;2023-05-14T14:38:07;4.80;;;2.67;;
41881;SDS011;27562;47.524;12.404;2023-05-14T14:40:33;3.67;;;2.50;;
41881;SDS011;27562;47.524;12.404;2023-05-14T14:42:59;3.33;;;2.15;;
41881;SDS011;27562;47.524;12.404;2023-05-14T14:45:25;5.70;;;2.42;;